sensor_id;sensor_type;location;lat;lon;timestamp;P1;durP1;ratioP1;P2;durP2;ratioP2
41921;SDS011;27609;51.002;5.354;2023-06-26T00:00:11;10.88;;;8.25;;
41921;SDS011;27609;51.002;5.354;2023-06-26T00:02:37;9.57;;;8.63;;
41921;SDS011;27609;51.002;5.354;2023-06-26T00:05:03;12.35;;;8.35;;
41921;SDS011;27609;51.002;5.354;2023-06-26T00:07:30;8.45;;;7.63;;
41921;SDS011;27609;51.002;5.354;2023-06-26T00:09:56;10.50;;;8.23;;
41921;SDS011;27609;51.002;5.354;2023-06-26T00:12:23;8.63;;;7.72;;
41921;SDS011;27609;51.002;5.354;2023-06-26T00:14:49;8.60;;;7.70;;
41921;SDS011;27609;51.002;5.354;2023-06-26T00:17:15;8.95;;;7.60;;
41921;SDS011;27609;51.002;5.354;2023-06-26T00:19:41;8.88;;;7.50;;
41921;SDS011;27609;51.002;5.354;2023-06-26T00:22:06;10.10;;;7.72;;
41921;SDS011;27609;51.002;5.354;2023-06-26T00:24:32;8.48;;;7.40;;
41921;SDS011;27609;51.002;5.354;2023-06-26T00:26:58;9.13;;;7.30;;
41921;SDS011;27609;51.002;5.354;2023-06-26T00:29:24;8.10;;;7.30;;
41921;SDS011;27609;51.002;5.354;2023-06-26T00:31:49;8.93;;;7.63;;
41921;SDS011;27609;51.002;5.354;2023-06-26T00:34:15;7.78;;;7.00;;
41921;SDS011;27609;51.002;5.354;2023-06-26T00:36:41;9.10;;;7.55;;
41921;SDS011;27609;51.002;5.354;2023-06-26T00:39:09;9.23;;;6.60;;
41921;SDS011;27609;51.002;5.354;2023-06-26T00:41:38;8.30;;;6.50;;
41921;SDS011;27609;51.002;5.354;2023-06-26T00:44:04;7.40;;;6.60;;
41921;SDS011;27609;51.002;5.354;2023-06-26T00:46:30;8.38;;;6.43;;
41921;SDS011;27609;51.002;5.354;2023-06-26T00:48:56;7.10;;;6.40;;
41921;SDS011;27609;51.002;5.354;2023-06-26T00:51:24;8.82;;;6.40;;
41921;SDS011;27609;51.002;5.354;2023-06-26T00:53:51;11.43;;;7.75;;
41921;SDS011;27609;51.002;5.354;2023-06-26T00:56:17;7.05;;;6.35;;
41921;SDS011;27609;51.002;5.354;2023-06-26T00:58:43;8.10;;;6.60;;
41921;SDS011;27609;51.002;5.354;2023-06-26T01:01:10;7.28;;;6.43;;
41921;SDS011;27609;51.002;5.354;2023-06-26T01:03:40;6.90;;;6.18;;
41921;SDS011;27609;51.002;5.354;2023-06-26T01:06:07;7.80;;;6.00;;
41921;SDS011;27609;51.002;5.354;2023-06-26T01:08:36;6.90;;;6.20;;
41921;SDS011;27609;51.002;5.354;2023-06-26T01:11:03;9.52;;;6.47;;
41921;SDS011;27609;51.002;5.354;2023-06-26T01:13:29;7.10;;;6.35;;
41921;SDS011;27609;51.002;5.354;2023-06-26T01:15:56;8.93;;;6.68;;
41921;SDS011;27609;51.002;5.354;2023-06-26T01:18:23;9.40;;;6.57;;
41921;SDS011;27609;51.002;5.354;2023-06-26T01:20:50;11.73;;;6.32;;
41921;SDS011;27609;51.002;5.354;2023-06-26T01:28:43;7.53;;;6.03;;
41921;SDS011;27609;51.002;5.354;2023-06-26T01:31:12;8.60;;;7.18;;
41921;SDS011;27609;51.002;5.354;2023-06-26T01:33:39;7.97;;;6.03;;
41921;SDS011;27609;51.002;5.354;2023-06-26T01:36:06;7.97;;;5.35;;
41921;SDS011;27609;51.002;5.354;2023-06-26T01:38:32;6.88;;;5.18;;
41921;SDS011;27609;51.002;5.354;2023-06-26T01:40:59;7.82;;;5.72;;
41921;SDS011;27609;51.002;5.354;2023-06-26T01:46:37;8.90;;;5.97;;
41921;SDS011;27609;51.002;5.354;2023-06-26T01:52:08;6.43;;;5.18;;
41921;SDS011;27609;51.002;5.354;2023-06-26T01:54:39;6.53;;;5.13;;
41921;SDS011;27609;51.002;5.354;2023-06-26T01:57:30;6.40;;;5.43;;
41921;SDS011;27609;51.002;5.354;2023-06-26T01:59:56;5.93;;;4.82;;
41921;SDS011;27609;51.002;5.354;2023-06-26T02:02:24;10.18;;;4.80;;
41921;SDS011;27609;51.002;5.354;2023-06-26T02:04:50;6.18;;;5.13;;
41921;SDS011;27609;51.002;5.354;2023-06-26T02:07:16;8.43;;;4.57;;
41921;SDS011;27609;51.002;5.354;2023-06-26T02:09:42;6.13;;;4.80;;
41921;SDS011;27609;51.002;5.354;2023-06-26T02:12:08;8.05;;;4.70;;
41921;SDS011;27609;51.002;5.354;2023-06-26T02:14:34;6.85;;;4.85;;
41921;SDS011;27609;51.002;5.354;2023-06-26T02:17:00;6.10;;;5.10;;
41921;SDS011;27609;51.002;5.354;2023-06-26T02:19:26;6.07;;;5.05;;
41921;SDS011;27609;51.002;5.354;2023-06-26T02:21:52;8.13;;;5.32;;
41921;SDS011;27609;51.002;5.354;2023-06-26T02:24:18;5.60;;;5.10;;
41921;SDS011;27609;51.002;5.354;2023-06-26T02:26:44;6.53;;;4.70;;
41921;SDS011;27609;51.002;5.354;2023-06-26T02:29:10;5.85;;;4.60;;
41921;SDS011;27609;51.002;5.354;2023-06-26T02:31:36;6.35;;;4.10;;
41921;SDS011;27609;51.002;5.354;2023-06-26T02:34:02;5.38;;;4.40;;
41921;SDS011;27609;51.002;5.354;2023-06-26T02:36:28;7.63;;;4.50;;
41921;SDS011;27609;51.002;5.354;2023-06-26T02:38:54;7.22;;;4.18;;
41921;SDS011;27609;51.002;5.354;2023-06-26T02:41:19;7.90;;;4.45;;
41921;SDS011;27609;51.002;5.354;2023-06-26T02:43:45;6.88;;;4.35;;
41921;SDS011;27609;51.002;5.354;2023-06-26T02:46:11;8.57;;;4.85;;
41921;SDS011;27609;51.002;5.354;2023-06-26T02:48:36;8.98;;;4.15;;
41921;SDS011;27609;51.002;5.354;2023-06-26T02:51:02;9.60;;;4.97;;
41921;SDS011;27609;51.002;5.354;2023-06-26T02:53:27;4.78;;;4.28;;
41921;SDS011;27609;51.002;5.354;2023-06-26T02:55:53;6.35;;;4.85;;
41921;SDS011;27609;51.002;5.354;2023-06-26T02:58:19;7.50;;;4.53;;
41921;SDS011;27609;51.002;5.354;2023-06-26T03:00:44;6.97;;;4.20;;
41921;SDS011;27609;51.002;5.354;2023-06-26T03:03:10;7.72;;;4.22;;
41921;SDS011;27609;51.002;5.354;2023-06-26T03:05:37;5.97;;;4.47;;
41921;SDS011;27609;51.002;5.354;2023-06-26T03:08:03;6.03;;;4.38;;
41921;SDS011;27609;51.002;5.354;2023-06-26T03:10:29;5.70;;;4.20;;
41921;SDS011;27609;51.002;5.354;2023-06-26T03:12:55;9.23;;;3.78;;
41921;SDS011;27609;51.002;5.354;2023-06-26T03:15:20;7.10;;;4.03;;
41921;SDS011;27609;51.002;5.354;2023-06-26T03:17:46;5.97;;;4.13;;
41921;SDS011;27609;51.002;5.354;2023-06-26T03:20:11;8.00;;;4.38;;
41921;SDS011;27609;51.002;5.354;2023-06-26T03:22:37;7.80;;;4.20;;
41921;SDS011;27609;51.002;5.354;2023-06-26T03:25:03;6.22;;;3.78;;
41921;SDS011;27609;51.002;5.354;2023-06-26T03:27:29;7.03;;;4.32;;
41921;SDS011;27609;51.002;5.354;2023-06-26T03:29:55;6.70;;;4.25;;
41921;SDS011;27609;51.002;5.354;2023-06-26T03:32:21;8.00;;;4.22;;
41921;SDS011;27609;51.002;5.354;2023-06-26T03:34:46;8.48;;;4.20;;
41921;SDS011;27609;51.002;5.354;2023-06-26T03:37:12;5.65;;;3.97;;
41921;SDS011;27609;51.002;5.354;2023-06-26T03:39:38;7.40;;;3.90;;
41921;SDS011;27609;51.002;5.354;2023-06-26T03:42:03;10.43;;;4.25;;
41921;SDS011;27609;51.002;5.354;2023-06-26T03:44:29;6.57;;;3.67;;
41921;SDS011;27609;51.002;5.354;2023-06-26T03:46:56;8.00;;;4.38;;
41921;SDS011;27609;51.002;5.354;2023-06-26T03:49:21;8.38;;;4.00;;
41921;SDS011;27609;51.002;5.354;2023-06-26T03:51:47;7.22;;;4.38;;
41921;SDS011;27609;51.002;5.354;2023-06-26T03:54:13;10.18;;;4.20;;
41921;SDS011;27609;51.002;5.354;2023-06-26T03:56:38;5.80;;;3.90;;
41921;SDS011;27609;51.002;5.354;2023-06-26T03:59:04;6.68;;;4.20;;
41921;SDS011;27609;51.002;5.354;2023-06-26T04:01:30;8.07;;;3.85;;
41921;SDS011;27609;51.002;5.354;2023-06-26T04:03:55;14.18;;;4.40;;
41921;SDS011;27609;51.002;5.354;2023-06-26T04:06:21;6.90;;;4.72;;
41921;SDS011;27609;51.002;5.354;2023-06-26T04:08:46;7.40;;;3.75;;
41921;SDS011;27609;51.002;5.354;2023-06-26T04:11:13;9.07;;;4.38;;
41921;SDS011;27609;51.002;5.354;2023-06-26T04:13:38;9.35;;;4.07;;
41921;SDS011;27609;51.002;5.354;2023-06-26T04:16:04;13.13;;;5.13;;
41921;SDS011;27609;51.002;5.354;2023-06-26T04:18:31;7.78;;;4.40;;
41921;SDS011;27609;51.002;5.354;2023-06-26T04:21:30;7.90;;;4.28;;
41921;SDS011;27609;51.002;5.354;2023-06-26T04:23:51;8.82;;;4.15;;
41921;SDS011;27609;51.002;5.354;2023-06-26T04:26:17;9.10;;;4.05;;
41921;SDS011;27609;51.002;5.354;2023-06-26T04:28:43;7.03;;;4.00;;
41921;SDS011;27609;51.002;5.354;2023-06-26T04:31:09;7.28;;;4.20;;
41921;SDS011;27609;51.002;5.354;2023-06-26T04:33:35;6.43;;;4.25;;
41921;SDS011;27609;51.002;5.354;2023-06-26T04:36:01;5.82;;;4.38;;
41921;SDS011;27609;51.002;5.354;2023-06-26T04:38:28;5.65;;;3.92;;
41921;SDS011;27609;51.002;5.354;2023-06-26T04:40:55;8.55;;;4.00;;
41921;SDS011;27609;51.002;5.354;2023-06-26T04:43:20;8.88;;;4.15;;
41921;SDS011;27609;51.002;5.354;2023-06-26T04:45:46;9.15;;;4.00;;
41921;SDS011;27609;51.002;5.354;2023-06-26T04:48:12;10.75;;;4.00;;
41921;SDS011;27609;51.002;5.354;2023-06-26T04:50:37;10.15;;;4.25;;
41921;SDS011;27609;51.002;5.354;2023-06-26T04:53:05;7.20;;;4.30;;
41921;SDS011;27609;51.002;5.354;2023-06-26T04:55:30;15.88;;;4.20;;
41921;SDS011;27609;51.002;5.354;2023-06-26T04:57:56;11.57;;;4.53;;
41921;SDS011;27609;51.002;5.354;2023-06-26T05:00:22;8.68;;;3.80;;
41921;SDS011;27609;51.002;5.354;2023-06-26T05:02:49;9.90;;;4.20;;
41921;SDS011;27609;51.002;5.354;2023-06-26T05:05:25;11.52;;;4.03;;
41921;SDS011;27609;51.002;5.354;2023-06-26T05:07:52;8.93;;;3.97;;
41921;SDS011;27609;51.002;5.354;2023-06-26T05:10:21;8.73;;;3.73;;
41921;SDS011;27609;51.002;5.354;2023-06-26T05:12:47;11.55;;;4.55;;
41921;SDS011;27609;51.002;5.354;2023-06-26T05:15:13;11.23;;;4.80;;
41921;SDS011;27609;51.002;5.354;2023-06-26T05:17:38;9.23;;;4.20;;
41921;SDS011;27609;51.002;5.354;2023-06-26T05:20:04;10.85;;;3.72;;
41921;SDS011;27609;51.002;5.354;2023-06-26T05:22:31;10.27;;;4.38;;
41921;SDS011;27609;51.002;5.354;2023-06-26T05:24:58;9.98;;;4.25;;
41921;SDS011;27609;51.002;5.354;2023-06-26T05:27:26;9.18;;;3.95;;
41921;SDS011;27609;51.002;5.354;2023-06-26T05:29:51;12.07;;;4.28;;
41921;SDS011;27609;51.002;5.354;2023-06-26T05:32:17;14.95;;;4.55;;
41921;SDS011;27609;51.002;5.354;2023-06-26T05:34:45;9.55;;;3.83;;
41921;SDS011;27609;51.002;5.354;2023-06-26T05:37:14;7.90;;;3.67;;
41921;SDS011;27609;51.002;5.354;2023-06-26T05:39:45;10.32;;;3.75;;
41921;SDS011;27609;51.002;5.354;2023-06-26T05:42:11;18.20;;;4.57;;
41921;SDS011;27609;51.002;5.354;2023-06-26T05:44:37;11.18;;;4.10;;
41921;SDS011;27609;51.002;5.354;2023-06-26T05:47:02;10.95;;;4.28;;
41921;SDS011;27609;51.002;5.354;2023-06-26T05:49:28;10.68;;;4.10;;
41921;SDS011;27609;51.002;5.354;2023-06-26T05:51:54;11.40;;;4.45;;
41921;SDS011;27609;51.002;5.354;2023-06-26T05:54:20;13.25;;;3.88;;
41921;SDS011;27609;51.002;5.354;2023-06-26T05:56:46;12.80;;;3.75;;
41921;SDS011;27609;51.002;5.354;2023-06-26T05:59:12;11.30;;;3.80;;
41921;SDS011;27609;51.002;5.354;2023-06-26T06:01:40;12.90;;;3.80;;
41921;SDS011;27609;51.002;5.354;2023-06-26T06:04:06;8.10;;;3.38;;
41921;SDS011;27609;51.002;5.354;2023-06-26T06:06:32;8.90;;;3.72;;
41921;SDS011;27609;51.002;5.354;2023-06-26T06:08:58;13.13;;;4.15;;
41921;SDS011;27609;51.002;5.354;2023-06-26T06:11:23;12.05;;;3.97;;
41921;SDS011;27609;51.002;5.354;2023-06-26T06:13:49;10.50;;;3.55;;
41921;SDS011;27609;51.002;5.354;2023-06-26T06:16:15;10.50;;;3.85;;
41921;SDS011;27609;51.002;5.354;2023-06-26T06:18:40;10.00;;;3.88;;
41921;SDS011;27609;51.002;5.354;2023-06-26T06:21:06;7.03;;;3.00;;
41921;SDS011;27609;51.002;5.354;2023-06-26T06:23:32;11.18;;;3.88;;
41921;SDS011;27609;51.002;5.354;2023-06-26T06:25:57;13.52;;;3.85;;
41921;SDS011;27609;51.002;5.354;2023-06-26T06:28:23;9.85;;;3.95;;
41921;SDS011;27609;51.002;5.354;2023-06-26T06:30:48;7.57;;;3.28;;
41921;SDS011;27609;51.002;5.354;2023-06-26T06:33:14;10.30;;;3.35;;
41921;SDS011;27609;51.002;5.354;2023-06-26T06:35:40;15.77;;;3.85;;
41921;SDS011;27609;51.002;5.354;2023-06-26T06:38:05;7.82;;;3.63;;
41921;SDS011;27609;51.002;5.354;2023-06-26T06:40:31;10.25;;;3.33;;
41921;SDS011;27609;51.002;5.354;2023-06-26T06:42:57;9.73;;;3.72;;
41921;SDS011;27609;51.002;5.354;2023-06-26T06:45:22;10.82;;;3.67;;
41921;SDS011;27609;51.002;5.354;2023-06-26T06:47:48;11.18;;;3.33;;
41921;SDS011;27609;51.002;5.354;2023-06-26T06:50:14;11.55;;;3.67;;
41921;SDS011;27609;51.002;5.354;2023-06-26T06:52:41;11.95;;;3.08;;
41921;SDS011;27609;51.002;5.354;2023-06-26T06:55:07;7.35;;;3.30;;
41921;SDS011;27609;51.002;5.354;2023-06-26T06:57:37;9.77;;;3.28;;
41921;SDS011;27609;51.002;5.354;2023-06-26T07:00:08;10.07;;;3.28;;
41921;SDS011;27609;51.002;5.354;2023-06-26T07:02:40;7.70;;;3.05;;
41921;SDS011;27609;51.002;5.354;2023-06-26T07:05:07;11.43;;;2.67;;
41921;SDS011;27609;51.002;5.354;2023-06-26T07:07:35;10.13;;;3.10;;
41921;SDS011;27609;51.002;5.354;2023-06-26T07:10:02;8.45;;;2.97;;
41921;SDS011;27609;51.002;5.354;2023-06-26T07:12:35;6.15;;;2.75;;
41921;SDS011;27609;51.002;5.354;2023-06-26T07:15:02;8.55;;;2.95;;
41921;SDS011;27609;51.002;5.354;2023-06-26T07:17:29;8.90;;;3.67;;
41921;SDS011;27609;51.002;5.354;2023-06-26T07:19:55;5.82;;;2.20;;
41921;SDS011;27609;51.002;5.354;2023-06-26T07:22:21;11.63;;;2.78;;
41921;SDS011;27609;51.002;5.354;2023-06-26T07:24:47;10.95;;;3.08;;
41921;SDS011;27609;51.002;5.354;2023-06-26T07:27:14;7.28;;;2.75;;
41921;SDS011;27609;51.002;5.354;2023-06-26T07:29:44;10.10;;;2.97;;
41921;SDS011;27609;51.002;5.354;2023-06-26T07:32:09;10.85;;;3.03;;
41921;SDS011;27609;51.002;5.354;2023-06-26T07:34:35;9.15;;;2.80;;
41921;SDS011;27609;51.002;5.354;2023-06-26T07:37:01;9.88;;;2.70;;
41921;SDS011;27609;51.002;5.354;2023-06-26T07:39:27;11.05;;;3.25;;
41921;SDS011;27609;51.002;5.354;2023-06-26T07:41:52;10.10;;;2.70;;
41921;SDS011;27609;51.002;5.354;2023-06-26T07:44:18;8.85;;;2.65;;
41921;SDS011;27609;51.002;5.354;2023-06-26T07:46:44;13.00;;;3.00;;
41921;SDS011;27609;51.002;5.354;2023-06-26T07:49:10;8.85;;;2.58;;
41921;SDS011;27609;51.002;5.354;2023-06-26T07:51:36;7.43;;;2.72;;
41921;SDS011;27609;51.002;5.354;2023-06-26T07:54:01;7.65;;;3.15;;
41921;SDS011;27609;51.002;5.354;2023-06-26T07:56:27;10.85;;;3.10;;
41921;SDS011;27609;51.002;5.354;2023-06-26T07:58:53;10.48;;;2.95;;
41921;SDS011;27609;51.002;5.354;2023-06-26T08:01:18;9.98;;;2.58;;
41921;SDS011;27609;51.002;5.354;2023-06-26T08:03:44;6.78;;;2.90;;
41921;SDS011;27609;51.002;5.354;2023-06-26T08:06:10;3.78;;;2.05;;
41921;SDS011;27609;51.002;5.354;2023-06-26T08:08:36;8.48;;;2.67;;
41921;SDS011;27609;51.002;5.354;2023-06-26T08:11:01;8.23;;;2.65;;
41921;SDS011;27609;51.002;5.354;2023-06-26T08:13:27;4.18;;;1.90;;
41921;SDS011;27609;51.002;5.354;2023-06-26T08:15:53;7.53;;;2.42;;
41921;SDS011;27609;51.002;5.354;2023-06-26T08:18:19;10.27;;;2.67;;
41921;SDS011;27609;51.002;5.354;2023-06-26T08:20:45;7.47;;;2.30;;
41921;SDS011;27609;51.002;5.354;2023-06-26T08:23:11;9.25;;;2.53;;
41921;SDS011;27609;51.002;5.354;2023-06-26T08:25:36;6.45;;;2.22;;
41921;SDS011;27609;51.002;5.354;2023-06-26T08:28:02;8.63;;;2.67;;
41921;SDS011;27609;51.002;5.354;2023-06-26T08:30:28;9.80;;;2.25;;
41921;SDS011;27609;51.002;5.354;2023-06-26T08:32:55;4.53;;;1.85;;
41921;SDS011;27609;51.002;5.354;2023-06-26T08:35:20;7.47;;;1.75;;
41921;SDS011;27609;51.002;5.354;2023-06-26T08:37:46;7.50;;;2.67;;
41921;SDS011;27609;51.002;5.354;2023-06-26T08:40:12;4.18;;;1.95;;
41921;SDS011;27609;51.002;5.354;2023-06-26T08:42:41;6.18;;;2.40;;
41921;SDS011;27609;51.002;5.354;2023-06-26T08:45:07;7.50;;;1.80;;
41921;SDS011;27609;51.002;5.354;2023-06-26T08:47:33;7.18;;;2.65;;
41921;SDS011;27609;51.002;5.354;2023-06-26T08:50:13;9.57;;;2.58;;
41921;SDS011;27609;51.002;5.354;2023-06-26T08:55:29;9.40;;;2.60;;
41921;SDS011;27609;51.002;5.354;2023-06-26T08:57:58;7.03;;;2.40;;
41921;SDS011;27609;51.002;5.354;2023-06-26T09:00:25;5.72;;;2.17;;
41921;SDS011;27609;51.002;5.354;2023-06-26T09:02:51;9.10;;;2.70;;
41921;SDS011;27609;51.002;5.354;2023-06-26T09:05:16;9.02;;;2.25;;
41921;SDS011;27609;51.002;5.354;2023-06-26T09:07:42;10.60;;;2.80;;
41921;SDS011;27609;51.002;5.354;2023-06-26T09:10:08;8.10;;;2.17;;
41921;SDS011;27609;51.002;5.354;2023-06-26T09:12:34;7.30;;;2.00;;
41921;SDS011;27609;51.002;5.354;2023-06-26T09:15:01;5.22;;;1.80;;
41921;SDS011;27609;51.002;5.354;2023-06-26T09:17:33;5.47;;;2.10;;
41921;SDS011;27609;51.002;5.354;2023-06-26T09:20:03;2.22;;;1.60;;
41921;SDS011;27609;51.002;5.354;2023-06-26T09:22:29;6.55;;;1.85;;
41921;SDS011;27609;51.002;5.354;2023-06-26T09:24:58;5.20;;;1.63;;
41921;SDS011;27609;51.002;5.354;2023-06-26T09:27:24;4.40;;;1.70;;
41921;SDS011;27609;51.002;5.354;2023-06-26T09:29:50;3.95;;;1.48;;
41921;SDS011;27609;51.002;5.354;2023-06-26T09:32:16;5.00;;;1.63;;
41921;SDS011;27609;51.002;5.354;2023-06-26T09:34:42;7.47;;;1.80;;
41921;SDS011;27609;51.002;5.354;2023-06-26T09:37:11;5.38;;;1.70;;
41921;SDS011;27609;51.002;5.354;2023-06-26T09:39:38;2.85;;;1.40;;
41921;SDS011;27609;51.002;5.354;2023-06-26T09:42:04;2.95;;;1.55;;
41921;SDS011;27609;51.002;5.354;2023-06-26T09:44:32;5.78;;;1.52;;
41921;SDS011;27609;51.002;5.354;2023-06-26T09:46:58;8.50;;;1.70;;
41921;SDS011;27609;51.002;5.354;2023-06-26T09:49:27;3.53;;;1.63;;
41921;SDS011;27609;51.002;5.354;2023-06-26T09:51:52;3.25;;;1.50;;
41921;SDS011;27609;51.002;5.354;2023-06-26T09:54:18;5.60;;;1.35;;
41921;SDS011;27609;51.002;5.354;2023-06-26T09:56:47;4.68;;;1.38;;
41921;SDS011;27609;51.002;5.354;2023-06-26T09:59:12;5.93;;;1.08;;
41921;SDS011;27609;51.002;5.354;2023-06-26T10:01:40;3.08;;;1.17;;
41921;SDS011;27609;51.002;5.354;2023-06-26T10:04:09;3.60;;;1.38;;
41921;SDS011;27609;51.002;5.354;2023-06-26T10:06:44;3.78;;;1.05;;
41921;SDS011;27609;51.002;5.354;2023-06-26T10:09:12;5.43;;;1.45;;
41921;SDS011;27609;51.002;5.354;2023-06-26T10:12:01;3.03;;;1.20;;
41921;SDS011;27609;51.002;5.354;2023-06-26T10:14:35;2.17;;;1.17;;
41921;SDS011;27609;51.002;5.354;2023-06-26T10:17:06;6.40;;;1.10;;
41921;SDS011;27609;51.002;5.354;2023-06-26T10:19:36;3.58;;;1.05;;
41921;SDS011;27609;51.002;5.354;2023-06-26T10:22:04;1.55;;;0.88;;
41921;SDS011;27609;51.002;5.354;2023-06-26T10:24:31;3.38;;;0.88;;
41921;SDS011;27609;51.002;5.354;2023-06-26T10:27:19;4.82;;;1.08;;
41921;SDS011;27609;51.002;5.354;2023-06-26T10:29:53;3.30;;;0.95;;
41921;SDS011;27609;51.002;5.354;2023-06-26T10:32:21;7.25;;;1.30;;
41921;SDS011;27609;51.002;5.354;2023-06-26T10:34:50;6.10;;;1.47;;
41921;SDS011;27609;51.002;5.354;2023-06-26T10:37:16;3.85;;;1.27;;
41921;SDS011;27609;51.002;5.354;2023-06-26T10:42:15;5.15;;;1.20;;
41921;SDS011;27609;51.002;5.354;2023-06-26T10:44:42;12.57;;;1.77;;
41921;SDS011;27609;51.002;5.354;2023-06-26T10:47:09;3.72;;;1.30;;
41921;SDS011;27609;51.002;5.354;2023-06-26T10:49:36;3.22;;;1.23;;
41921;SDS011;27609;51.002;5.354;2023-06-26T10:52:04;3.50;;;1.40;;
41921;SDS011;27609;51.002;5.354;2023-06-26T10:54:31;7.18;;;1.60;;
41921;SDS011;27609;51.002;5.354;2023-06-26T10:56:58;3.05;;;1.13;;
41921;SDS011;27609;51.002;5.354;2023-06-26T10:59:28;3.13;;;0.98;;
41921;SDS011;27609;51.002;5.354;2023-06-26T11:01:59;4.75;;;1.48;;
41921;SDS011;27609;51.002;5.354;2023-06-26T11:12:46;2.58;;;1.20;;
41921;SDS011;27609;51.002;5.354;2023-06-26T11:15:16;4.32;;;1.08;;
41921;SDS011;27609;51.002;5.354;2023-06-26T11:17:44;7.43;;;1.00;;
41921;SDS011;27609;51.002;5.354;2023-06-26T11:20:13;5.30;;;1.23;;
41921;SDS011;27609;51.002;5.354;2023-06-26T11:22:41;3.28;;;1.10;;
41921;SDS011;27609;51.002;5.354;2023-06-26T11:25:08;9.70;;;1.23;;
41921;SDS011;27609;51.002;5.354;2023-06-26T11:30:04;5.43;;;1.25;;
41921;SDS011;27609;51.002;5.354;2023-06-26T11:32:31;3.22;;;1.02;;
41921;SDS011;27609;51.002;5.354;2023-06-26T11:34:58;5.18;;;1.20;;
41921;SDS011;27609;51.002;5.354;2023-06-26T11:37:24;4.05;;;1.65;;
41921;SDS011;27609;51.002;5.354;2023-06-26T11:39:50;5.00;;;1.42;;
41921;SDS011;27609;51.002;5.354;2023-06-26T11:42:16;4.00;;;1.30;;
41921;SDS011;27609;51.002;5.354;2023-06-26T11:44:46;3.80;;;1.17;;
41921;SDS011;27609;51.002;5.354;2023-06-26T11:47:12;4.50;;;1.38;;
41921;SDS011;27609;51.002;5.354;2023-06-26T11:49:48;3.22;;;1.27;;
41921;SDS011;27609;51.002;5.354;2023-06-26T11:52:14;3.40;;;1.27;;
41921;SDS011;27609;51.002;5.354;2023-06-26T11:54:41;3.15;;;1.33;;
41921;SDS011;27609;51.002;5.354;2023-06-26T11:57:08;5.22;;;1.52;;
41921;SDS011;27609;51.002;5.354;2023-06-26T11:59:39;5.15;;;1.42;;
41921;SDS011;27609;51.002;5.354;2023-06-26T12:02:09;8.57;;;1.55;;
41921;SDS011;27609;51.002;5.354;2023-06-26T12:04:38;3.65;;;1.10;;
41921;SDS011;27609;51.002;5.354;2023-06-26T12:07:08;3.40;;;1.60;;
41921;SDS011;27609;51.002;5.354;2023-06-26T12:09:41;2.58;;;1.08;;
41921;SDS011;27609;51.002;5.354;2023-06-26T12:12:09;2.88;;;1.17;;
41921;SDS011;27609;51.002;5.354;2023-06-26T12:14:37;1.95;;;0.95;;
41921;SDS011;27609;51.002;5.354;2023-06-26T12:17:12;3.67;;;1.20;;
41921;SDS011;27609;51.002;5.354;2023-06-26T12:19:39;3.03;;;1.00;;
41921;SDS011;27609;51.002;5.354;2023-06-26T12:24:35;4.18;;;1.58;;
41921;SDS011;27609;51.002;5.354;2023-06-26T12:27:02;2.97;;;1.40;;
41921;SDS011;27609;51.002;5.354;2023-06-26T12:29:32;1.95;;;1.02;;
41921;SDS011;27609;51.002;5.354;2023-06-26T12:31:59;6.57;;;1.73;;
41921;SDS011;27609;51.002;5.354;2023-06-26T12:34:28;4.13;;;1.35;;
41921;SDS011;27609;51.002;5.354;2023-06-26T12:37:02;3.30;;;1.13;;
41921;SDS011;27609;51.002;5.354;2023-06-26T12:39:51;4.25;;;1.30;;
41921;SDS011;27609;51.002;5.354;2023-06-26T12:42:19;4.32;;;1.27;;
41921;SDS011;27609;51.002;5.354;2023-06-26T12:44:51;2.90;;;1.20;;
41921;SDS011;27609;51.002;5.354;2023-06-26T12:47:19;2.05;;;0.90;;
41921;SDS011;27609;51.002;5.354;2023-06-26T12:49:52;2.28;;;1.25;;
41921;SDS011;27609;51.002;5.354;2023-06-26T12:52:18;4.05;;;1.20;;
41921;SDS011;27609;51.002;5.354;2023-06-26T12:54:44;3.35;;;1.15;;
41921;SDS011;27609;51.002;5.354;2023-06-26T12:57:12;3.17;;;1.13;;
41921;SDS011;27609;51.002;5.354;2023-06-26T13:02:07;2.55;;;1.20;;
41921;SDS011;27609;51.002;5.354;2023-06-26T13:04:33;4.88;;;1.35;;
41921;SDS011;27609;51.002;5.354;2023-06-26T13:07:00;4.05;;;1.40;;
41921;SDS011;27609;51.002;5.354;2023-06-26T13:09:26;3.20;;;1.23;;
41921;SDS011;27609;51.002;5.354;2023-06-26T13:11:53;3.97;;;1.10;;
41921;SDS011;27609;51.002;5.354;2023-06-26T13:14:19;3.15;;;0.98;;
41921;SDS011;27609;51.002;5.354;2023-06-26T13:16:46;2.92;;;1.23;;
41921;SDS011;27609;51.002;5.354;2023-06-26T13:19:11;3.13;;;1.15;;
41921;SDS011;27609;51.002;5.354;2023-06-26T13:21:37;5.05;;;1.60;;
41921;SDS011;27609;51.002;5.354;2023-06-26T13:24:03;2.15;;;1.38;;
41921;SDS011;27609;51.002;5.354;2023-06-26T13:26:29;7.18;;;1.35;;
41921;SDS011;27609;51.002;5.354;2023-06-26T13:28:55;3.17;;;1.35;;
41921;SDS011;27609;51.002;5.354;2023-06-26T13:31:21;3.65;;;1.20;;
41921;SDS011;27609;51.002;5.354;2023-06-26T13:33:47;5.40;;;1.40;;
41921;SDS011;27609;51.002;5.354;2023-06-26T13:36:19;2.80;;;1.10;;
41921;SDS011;27609;51.002;5.354;2023-06-26T13:38:46;2.25;;;1.13;;
41921;SDS011;27609;51.002;5.354;2023-06-26T13:41:13;3.13;;;1.27;;
41921;SDS011;27609;51.002;5.354;2023-06-26T13:43:38;5.72;;;1.25;;
41921;SDS011;27609;51.002;5.354;2023-06-26T13:46:04;4.22;;;1.63;;
41921;SDS011;27609;51.002;5.354;2023-06-26T13:48:30;1.55;;;0.98;;
41921;SDS011;27609;51.002;5.354;2023-06-26T13:50:55;4.10;;;1.42;;
41921;SDS011;27609;51.002;5.354;2023-06-26T13:53:21;3.72;;;1.33;;
41921;SDS011;27609;51.002;5.354;2023-06-26T13:55:47;4.35;;;1.30;;
41921;SDS011;27609;51.002;5.354;2023-06-26T13:58:13;3.47;;;1.40;;
41921;SDS011;27609;51.002;5.354;2023-06-26T14:00:39;4.38;;;1.23;;
41921;SDS011;27609;51.002;5.354;2023-06-26T14:03:05;7.72;;;1.35;;
41921;SDS011;27609;51.002;5.354;2023-06-26T14:05:34;3.78;;;1.35;;
41921;SDS011;27609;51.002;5.354;2023-06-26T14:08:04;2.83;;;1.15;;
41921;SDS011;27609;51.002;5.354;2023-06-26T14:10:31;4.47;;;1.38;;
41921;SDS011;27609;51.002;5.354;2023-06-26T14:15:28;5.47;;;1.20;;
41921;SDS011;27609;51.002;5.354;2023-06-26T14:17:54;3.40;;;1.13;;
41921;SDS011;27609;51.002;5.354;2023-06-26T14:20:20;4.00;;;1.15;;
41921;SDS011;27609;51.002;5.354;2023-06-26T14:22:47;5.20;;;1.75;;
41921;SDS011;27609;51.002;5.354;2023-06-26T14:25:14;3.22;;;1.27;;
41921;SDS011;27609;51.002;5.354;2023-06-26T14:27:41;5.72;;;1.55;;
41921;SDS011;27609;51.002;5.354;2023-06-26T14:30:07;5.22;;;1.35;;
41921;SDS011;27609;51.002;5.354;2023-06-26T14:32:33;2.63;;;1.33;;
41921;SDS011;27609;51.002;5.354;2023-06-26T14:35:00;3.60;;;1.10;;
41921;SDS011;27609;51.002;5.354;2023-06-26T14:37:26;3.25;;;1.23;;
41921;SDS011;27609;51.002;5.354;2023-06-26T14:39:54;2.97;;;1.10;;
41921;SDS011;27609;51.002;5.354;2023-06-26T14:42:19;4.50;;;0.98;;
41921;SDS011;27609;51.002;5.354;2023-06-26T14:44:45;6.65;;;1.60;;
41921;SDS011;27609;51.002;5.354;2023-06-26T14:47:15;3.60;;;1.45;;
41921;SDS011;27609;51.002;5.354;2023-06-26T14:49:41;5.32;;;1.55;;
41921;SDS011;27609;51.002;5.354;2023-06-26T14:52:07;5.43;;;1.40;;
41921;SDS011;27609;51.002;5.354;2023-06-26T14:54:33;3.00;;;1.50;;
41921;SDS011;27609;51.002;5.354;2023-06-26T14:57:01;6.80;;;1.40;;
41921;SDS011;27609;51.002;5.354;2023-06-26T14:59:27;5.72;;;1.30;;
41921;SDS011;27609;51.002;5.354;2023-06-26T15:01:53;3.55;;;1.77;;
41921;SDS011;27609;51.002;5.354;2023-06-26T15:04:19;3.53;;;1.13;;
41921;SDS011;27609;51.002;5.354;2023-06-26T15:06:44;12.35;;;1.70;;
41921;SDS011;27609;51.002;5.354;2023-06-26T15:09:10;2.42;;;1.50;;
41921;SDS011;27609;51.002;5.354;2023-06-26T15:11:36;5.63;;;1.42;;
41921;SDS011;27609;51.002;5.354;2023-06-26T15:14:01;4.50;;;1.30;;
41921;SDS011;27609;51.002;5.354;2023-06-26T15:16:27;4.15;;;1.40;;
41921;SDS011;27609;51.002;5.354;2023-06-26T15:18:52;5.05;;;1.48;;